Aviation Digital Data Service (ADDS)

Output produced by METARs form (2146 UTC 31 August 2015)
found at http://aviationweather.gov/adds/metars/
 
KLWB 311729Z 3118/0118 VRB03KT P6SM -SHRA BKN040 BKN120 
     FM010200 00000KT P6SM SCT060 SCT120 
     FM010700 00000KT 1/4SM FG OVC001 
     FM011400 VRB03KT P6SM SCT035